sensor_id;sensor_type;location;lat;lon;timestamp;P1;durP1;ratioP1;P2;durP2;ratioP2
7881;SDS011;3986;41.884;23.466;2022-07-21T00:01:34;7.90;;;7.30;;
7881;SDS011;3986;41.884;23.466;2022-07-21T00:04:02;10.75;;;8.10;;
7881;SDS011;3986;41.884;23.466;2022-07-21T00:06:29;16.42;;;8.90;;
7881;SDS011;3986;41.884;23.466;2022-07-21T00:08:57;10.07;;;7.00;;
7881;SDS011;3986;41.884;23.466;2022-07-21T00:11:24;10.60;;;7.18;;
7881;SDS011;3986;41.884;23.466;2022-07-21T00:13:50;10.95;;;7.22;;
7881;SDS011;3986;41.884;23.466;2022-07-21T00:16:17;7.28;;;6.68;;
7881;SDS011;3986;41.884;23.466;2022-07-21T00:18:44;10.43;;;7.13;;
7881;SDS011;3986;41.884;23.466;2022-07-21T00:21:11;7.65;;;7.00;;
7881;SDS011;3986;41.884;23.466;2022-07-21T00:23:38;8.77;;;7.60;;
7881;SDS011;3986;41.884;23.466;2022-07-21T00:26:06;7.97;;;7.25;;
7881;SDS011;3986;41.884;23.466;2022-07-21T00:28:33;7.63;;;7.03;;
7881;SDS011;3986;41.884;23.466;2022-07-21T00:33:26;11.07;;;8.75;;
7881;SDS011;3986;41.884;23.466;2022-07-21T00:35:53;14.05;;;7.75;;
7881;SDS011;3986;41.884;23.466;2022-07-21T00:38:20;47.30;;;42.03;;
7881;SDS011;3986;41.884;23.466;2022-07-21T00:40:47;33.50;;;30.02;;
7881;SDS011;3986;41.884;23.466;2022-07-21T00:43:15;10.73;;;9.68;;
7881;SDS011;3986;41.884;23.466;2022-07-21T00:45:42;8.43;;;7.55;;
7881;SDS011;3986;41.884;23.466;2022-07-21T00:48:09;10.73;;;9.93;;
7881;SDS011;3986;41.884;23.466;2022-07-21T00:50:35;16.80;;;14.63;;
7881;SDS011;3986;41.884;23.466;2022-07-21T00:53:02;16.23;;;14.60;;
7881;SDS011;3986;41.884;23.466;2022-07-21T00:55:29;18.33;;;14.90;;
7881;SDS011;3986;41.884;23.466;2022-07-21T00:57:56;20.23;;;13.90;;
7881;SDS011;3986;41.884;23.466;2022-07-21T01:00:25;16.05;;;14.48;;
7881;SDS011;3986;41.884;23.466;2022-07-21T01:02:54;21.97;;;16.83;;
7881;SDS011;3986;41.884;23.466;2022-07-21T01:05:22;19.37;;;15.70;;
7881;SDS011;3986;41.884;23.466;2022-07-21T01:07:50;21.77;;;19.83;;
7881;SDS011;3986;41.884;23.466;2022-07-21T01:10:18;23.42;;;20.33;;
7881;SDS011;3986;41.884;23.466;2022-07-21T01:12:47;22.73;;;20.67;;
7881;SDS011;3986;41.884;23.466;2022-07-21T01:15:14;17.60;;;16.10;;
7881;SDS011;3986;41.884;23.466;2022-07-21T01:17:44;19.03;;;17.50;;
7881;SDS011;3986;41.884;23.466;2022-07-21T01:20:12;16.50;;;15.10;;
7881;SDS011;3986;41.884;23.466;2022-07-21T01:22:42;15.50;;;14.37;;
7881;SDS011;3986;41.884;23.466;2022-07-21T01:25:11;15.83;;;14.60;;
7881;SDS011;3986;41.884;23.466;2022-07-21T01:27:38;17.20;;;15.80;;
7881;SDS011;3986;41.884;23.466;2022-07-21T01:30:06;16.83;;;15.23;;
7881;SDS011;3986;41.884;23.466;2022-07-21T01:32:35;19.33;;;14.83;;
7881;SDS011;3986;41.884;23.466;2022-07-21T01:35:03;23.37;;;16.17;;
7881;SDS011;3986;41.884;23.466;2022-07-21T01:37:31;19.20;;;16.57;;
7881;SDS011;3986;41.884;23.466;2022-07-21T01:40:02;18.00;;;16.03;;
7881;SDS011;3986;41.884;23.466;2022-07-21T01:42:47;19.90;;;17.93;;
7881;SDS011;3986;41.884;23.466;2022-07-21T01:45:13;21.47;;;19.30;;
7881;SDS011;3986;41.884;23.466;2022-07-21T01:47:40;19.87;;;17.80;;
7881;SDS011;3986;41.884;23.466;2022-07-21T01:50:07;21.90;;;19.77;;
7881;SDS011;3986;41.884;23.466;2022-07-21T01:52:34;29.83;;;20.10;;
7881;SDS011;3986;41.884;23.466;2022-07-21T01:55:02;27.87;;;20.83;;
7881;SDS011;3986;41.884;23.466;2022-07-21T01:57:30;28.27;;;19.93;;
7881;SDS011;3986;41.884;23.466;2022-07-21T01:59:56;32.93;;;20.37;;
7881;SDS011;3986;41.884;23.466;2022-07-21T02:02:23;36.57;;;21.57;;
7881;SDS011;3986;41.884;23.466;2022-07-21T02:04:50;23.17;;;18.77;;
7881;SDS011;3986;41.884;23.466;2022-07-21T02:07:17;20.60;;;18.40;;
7881;SDS011;3986;41.884;23.466;2022-07-21T02:09:44;23.13;;;20.73;;
7881;SDS011;3986;41.884;23.466;2022-07-21T02:12:12;24.33;;;21.63;;
7881;SDS011;3986;41.884;23.466;2022-07-21T02:14:39;22.50;;;20.33;;
7881;SDS011;3986;41.884;23.466;2022-07-21T02:17:05;25.70;;;22.57;;
7881;SDS011;3986;41.884;23.466;2022-07-21T02:19:32;26.90;;;22.03;;
7881;SDS011;3986;41.884;23.466;2022-07-21T02:21:59;26.73;;;20.93;;
7881;SDS011;3986;41.884;23.466;2022-07-21T02:24:29;20.80;;;18.73;;
7881;SDS011;3986;41.884;23.466;2022-07-21T02:26:56;20.13;;;17.40;;
7881;SDS011;3986;41.884;23.466;2022-07-21T02:29:24;15.70;;;14.40;;
7881;SDS011;3986;41.884;23.466;2022-07-21T02:31:51;14.60;;;13.50;;
7881;SDS011;3986;41.884;23.466;2022-07-21T02:34:18;19.40;;;14.43;;
7881;SDS011;3986;41.884;23.466;2022-07-21T02:36:45;17.17;;;14.00;;
7881;SDS011;3986;41.884;23.466;2022-07-21T02:39:12;12.87;;;11.67;;
7881;SDS011;3986;41.884;23.466;2022-07-21T02:41:39;12.93;;;10.57;;
7881;SDS011;3986;41.884;23.466;2022-07-21T02:44:05;13.40;;;11.53;;
7881;SDS011;3986;41.884;23.466;2022-07-21T02:46:33;16.97;;;11.23;;
7881;SDS011;3986;41.884;23.466;2022-07-21T02:49:00;13.40;;;9.97;;
7881;SDS011;3986;41.884;23.466;2022-07-21T02:51:27;17.27;;;12.30;;
7881;SDS011;3986;41.884;23.466;2022-07-21T02:53:54;10.33;;;9.47;;
7881;SDS011;3986;41.884;23.466;2022-07-21T02:56:21;11.73;;;10.53;;
7881;SDS011;3986;41.884;23.466;2022-07-21T02:58:47;10.50;;;9.50;;
7881;SDS011;3986;41.884;23.466;2022-07-21T03:01:14;12.33;;;10.20;;
7881;SDS011;3986;41.884;23.466;2022-07-21T03:03:45;10.80;;;9.80;;
7881;SDS011;3986;41.884;23.466;2022-07-21T03:06:12;18.03;;;13.53;;
7881;SDS011;3986;41.884;23.466;2022-07-21T03:08:39;12.97;;;11.17;;
7881;SDS011;3986;41.884;23.466;2022-07-21T03:11:05;16.93;;;13.07;;
7881;SDS011;3986;41.884;23.466;2022-07-21T03:13:33;17.53;;;12.73;;
7881;SDS011;3986;41.884;23.466;2022-07-21T03:15:59;14.87;;;9.97;;
7881;SDS011;3986;41.884;23.466;2022-07-21T03:18:26;10.40;;;9.17;;
7881;SDS011;3986;41.884;23.466;2022-07-21T03:20:54;9.77;;;8.10;;
7881;SDS011;3986;41.884;23.466;2022-07-21T03:23:23;9.77;;;8.77;;
7881;SDS011;3986;41.884;23.466;2022-07-21T03:25:50;11.37;;;9.33;;
7881;SDS011;3986;41.884;23.466;2022-07-21T03:28:17;8.60;;;7.87;;
7881;SDS011;3986;41.884;23.466;2022-07-21T03:30:44;12.60;;;9.50;;
7881;SDS011;3986;41.884;23.466;2022-07-21T03:33:11;18.87;;;9.40;;
7881;SDS011;3986;41.884;23.466;2022-07-21T03:35:37;20.13;;;12.27;;
7881;SDS011;3986;41.884;23.466;2022-07-21T03:38:06;13.23;;;9.70;;
7881;SDS011;3986;41.884;23.466;2022-07-21T03:40:33;22.83;;;15.90;;
7881;SDS011;3986;41.884;23.466;2022-07-21T03:43:02;21.33;;;16.00;;
7881;SDS011;3986;41.884;23.466;2022-07-21T03:45:31;18.57;;;16.00;;
7881;SDS011;3986;41.884;23.466;2022-07-21T03:47:58;17.73;;;16.20;;
7881;SDS011;3986;41.884;23.466;2022-07-21T03:50:26;19.00;;;17.20;;
7881;SDS011;3986;41.884;23.466;2022-07-21T03:52:53;25.10;;;20.70;;
7881;SDS011;3986;41.884;23.466;2022-07-21T03:55:22;26.27;;;22.70;;
7881;SDS011;3986;41.884;23.466;2022-07-21T03:57:50;26.20;;;21.87;;
7881;SDS011;3986;41.884;23.466;2022-07-21T04:00:23;22.73;;;20.63;;
7881;SDS011;3986;41.884;23.466;2022-07-21T04:02:52;72.53;;;67.30;;
7881;SDS011;3986;41.884;23.466;2022-07-21T04:05:19;78.87;;;72.93;;
7881;SDS011;3986;41.884;23.466;2022-07-21T04:07:47;63.17;;;57.97;;
7881;SDS011;3986;41.884;23.466;2022-07-21T04:10:16;65.03;;;59.63;;
7881;SDS011;3986;41.884;23.466;2022-07-21T04:12:45;63.87;;;58.97;;
7881;SDS011;3986;41.884;23.466;2022-07-21T04:15:12;44.33;;;40.40;;
7881;SDS011;3986;41.884;23.466;2022-07-21T04:17:39;31.53;;;28.67;;
7881;SDS011;3986;41.884;23.466;2022-07-21T04:20:07;27.50;;;25.20;;
7881;SDS011;3986;41.884;23.466;2022-07-21T04:22:35;27.67;;;24.77;;
7881;SDS011;3986;41.884;23.466;2022-07-21T04:25:02;34.83;;;31.70;;
7881;SDS011;3986;41.884;23.466;2022-07-21T04:27:30;30.70;;;27.87;;
7881;SDS011;3986;41.884;23.466;2022-07-21T04:30:03;28.13;;;26.10;;
7881;SDS011;3986;41.884;23.466;2022-07-21T04:32:30;26.03;;;24.03;;
7881;SDS011;3986;41.884;23.466;2022-07-21T04:34:57;23.40;;;21.80;;
7881;SDS011;3986;41.884;23.466;2022-07-21T04:37:24;24.57;;;22.43;;
7881;SDS011;3986;41.884;23.466;2022-07-21T04:39:51;26.57;;;24.03;;
7881;SDS011;3986;41.884;23.466;2022-07-21T04:42:18;29.30;;;26.30;;
7881;SDS011;3986;41.884;23.466;2022-07-21T04:44:45;30.70;;;27.50;;
7881;SDS011;3986;41.884;23.466;2022-07-21T04:47:13;25.90;;;23.43;;
7881;SDS011;3986;41.884;23.466;2022-07-21T04:49:40;29.53;;;26.00;;
7881;SDS011;3986;41.884;23.466;2022-07-21T04:52:07;28.13;;;25.20;;
7881;SDS011;3986;41.884;23.466;2022-07-21T04:54:33;26.93;;;24.43;;
7881;SDS011;3986;41.884;23.466;2022-07-21T04:57:00;28.73;;;26.13;;
7881;SDS011;3986;41.884;23.466;2022-07-21T04:59:29;26.07;;;23.60;;
7881;SDS011;3986;41.884;23.466;2022-07-21T05:01:56;23.77;;;21.87;;
7881;SDS011;3986;41.884;23.466;2022-07-21T05:04:25;24.93;;;22.47;;
7881;SDS011;3986;41.884;23.466;2022-07-21T05:06:52;25.73;;;23.40;;
7881;SDS011;3986;41.884;23.466;2022-07-21T05:09:19;28.07;;;25.13;;
7881;SDS011;3986;41.884;23.466;2022-07-21T05:11:46;27.00;;;23.00;;
7881;SDS011;3986;41.884;23.466;2022-07-21T05:14:13;27.80;;;24.87;;
7881;SDS011;3986;41.884;23.466;2022-07-21T05:16:40;25.97;;;23.47;;
7881;SDS011;3986;41.884;23.466;2022-07-21T05:19:07;49.33;;;44.57;;
7881;SDS011;3986;41.884;23.466;2022-07-21T05:21:35;25.33;;;22.80;;
7881;SDS011;3986;41.884;23.466;2022-07-21T05:24:02;25.88;;;23.27;;
7881;SDS011;3986;41.884;23.466;2022-07-21T05:26:29;45.57;;;41.37;;
7881;SDS011;3986;41.884;23.466;2022-07-21T05:28:56;30.13;;;27.43;;
7881;SDS011;3986;41.884;23.466;2022-07-21T05:31:23;28.43;;;25.03;;
7881;SDS011;3986;41.884;23.466;2022-07-21T05:33:50;25.10;;;22.10;;
7881;SDS011;3986;41.884;23.466;2022-07-21T05:36:17;29.50;;;26.17;;
7881;SDS011;3986;41.884;23.466;2022-07-21T05:38:46;25.40;;;22.80;;
7881;SDS011;3986;41.884;23.466;2022-07-21T05:41:13;29.38;;;22.80;;
7881;SDS011;3986;41.884;23.466;2022-07-21T05:43:40;26.52;;;21.08;;
7881;SDS011;3986;41.884;23.466;2022-07-21T05:46:07;24.70;;;20.85;;
7881;SDS011;3986;41.884;23.466;2022-07-21T05:48:33;22.65;;;20.52;;
7881;SDS011;3986;41.884;23.466;2022-07-21T05:51:01;27.85;;;20.38;;
7881;SDS011;3986;41.884;23.466;2022-07-21T05:53:28;20.50;;;18.20;;
7881;SDS011;3986;41.884;23.466;2022-07-21T05:55:56;19.95;;;17.92;;
7881;SDS011;3986;41.884;23.466;2022-07-21T05:58:23;33.08;;;21.52;;
7881;SDS011;3986;41.884;23.466;2022-07-21T06:00:50;28.75;;;23.75;;
7881;SDS011;3986;41.884;23.466;2022-07-21T06:03:30;23.65;;;21.67;;
7881;SDS011;3986;41.884;23.466;2022-07-21T06:05:57;28.85;;;26.42;;
7881;SDS011;3986;41.884;23.466;2022-07-21T06:08:24;25.30;;;22.40;;
7881;SDS011;3986;41.884;23.466;2022-07-21T06:10:51;28.50;;;20.17;;
7881;SDS011;3986;41.884;23.466;2022-07-21T06:13:19;24.67;;;22.25;;
7881;SDS011;3986;41.884;23.466;2022-07-21T06:15:46;29.15;;;22.52;;
7881;SDS011;3986;41.884;23.466;2022-07-21T06:18:13;22.45;;;19.30;;
7881;SDS011;3986;41.884;23.466;2022-07-21T06:20:40;19.33;;;17.35;;
7881;SDS011;3986;41.884;23.466;2022-07-21T06:23:07;19.75;;;17.73;;
7881;SDS011;3986;41.884;23.466;2022-07-21T06:25:34;21.58;;;19.58;;
7881;SDS011;3986;41.884;23.466;2022-07-21T06:28:01;19.00;;;16.13;;
7881;SDS011;3986;41.884;23.466;2022-07-21T06:30:29;18.05;;;16.30;;
7881;SDS011;3986;41.884;23.466;2022-07-21T06:32:56;17.88;;;16.25;;
7881;SDS011;3986;41.884;23.466;2022-07-21T06:35:23;20.95;;;18.75;;
7881;SDS011;3986;41.884;23.466;2022-07-21T06:37:50;24.60;;;18.42;;
7881;SDS011;3986;41.884;23.466;2022-07-21T06:40:17;21.77;;;18.70;;
7881;SDS011;3986;41.884;23.466;2022-07-21T06:42:44;23.17;;;17.52;;
7881;SDS011;3986;41.884;23.466;2022-07-21T06:45:11;21.58;;;16.70;;
7881;SDS011;3986;41.884;23.466;2022-07-21T06:47:39;55.22;;;49.67;;
7881;SDS011;3986;41.884;23.466;2022-07-21T06:50:07;22.23;;;16.75;;
7881;SDS011;3986;41.884;23.466;2022-07-21T06:52:35;25.35;;;17.38;;
7881;SDS011;3986;41.884;23.466;2022-07-21T06:55:02;26.95;;;15.95;;
7881;SDS011;3986;41.884;23.466;2022-07-21T06:57:30;24.73;;;14.57;;
7881;SDS011;3986;41.884;23.466;2022-07-21T06:59:56;28.73;;;13.43;;
7881;SDS011;3986;41.884;23.466;2022-07-21T07:02:23;26.92;;;13.77;;
7881;SDS011;3986;41.884;23.466;2022-07-21T07:04:51;20.38;;;13.93;;
7881;SDS011;3986;41.884;23.466;2022-07-21T07:07:18;36.20;;;13.88;;
7881;SDS011;3986;41.884;23.466;2022-07-21T07:09:45;22.70;;;12.05;;
7881;SDS011;3986;41.884;23.466;2022-07-21T07:12:12;25.90;;;11.75;;
7881;SDS011;3986;41.884;23.466;2022-07-21T07:14:39;19.27;;;10.98;;
7881;SDS011;3986;41.884;23.466;2022-07-21T07:17:06;15.25;;;9.88;;
7881;SDS011;3986;41.884;23.466;2022-07-21T07:19:33;23.02;;;10.98;;
7881;SDS011;3986;41.884;23.466;2022-07-21T07:22:01;28.35;;;12.18;;
7881;SDS011;3986;41.884;23.466;2022-07-21T07:24:28;26.95;;;13.55;;
7881;SDS011;3986;41.884;23.466;2022-07-21T07:26:55;20.10;;;11.07;;
7881;SDS011;3986;41.884;23.466;2022-07-21T07:29:22;27.10;;;10.40;;
7881;SDS011;3986;41.884;23.466;2022-07-21T07:31:49;24.83;;;9.70;;
7881;SDS011;3986;41.884;23.466;2022-07-21T07:34:16;24.83;;;9.57;;
7881;SDS011;3986;41.884;23.466;2022-07-21T07:36:43;14.25;;;10.00;;
7881;SDS011;3986;41.884;23.466;2022-07-21T07:39:12;14.32;;;10.35;;
7881;SDS011;3986;41.884;23.466;2022-07-21T07:41:41;16.40;;;14.15;;
7881;SDS011;3986;41.884;23.466;2022-07-21T07:44:08;29.20;;;13.35;;
7881;SDS011;3986;41.884;23.466;2022-07-21T07:46:35;19.20;;;12.75;;
7881;SDS011;3986;41.884;23.466;2022-07-21T07:49:02;29.60;;;19.65;;
7881;SDS011;3986;41.884;23.466;2022-07-21T07:51:29;22.13;;;14.02;;
7881;SDS011;3986;41.884;23.466;2022-07-21T07:53:56;29.30;;;12.02;;
7881;SDS011;3986;41.884;23.466;2022-07-21T07:56:24;18.83;;;9.82;;
7881;SDS011;3986;41.884;23.466;2022-07-21T07:58:51;17.85;;;9.32;;
7881;SDS011;3986;41.884;23.466;2022-07-21T08:01:18;29.05;;;11.68;;
7881;SDS011;3986;41.884;23.466;2022-07-21T08:03:45;28.25;;;10.82;;
7881;SDS011;3986;41.884;23.466;2022-07-21T08:06:12;20.77;;;10.25;;
7881;SDS011;3986;41.884;23.466;2022-07-21T08:08:39;29.60;;;11.73;;
7881;SDS011;3986;41.884;23.466;2022-07-21T08:11:06;26.23;;;10.20;;
7881;SDS011;3986;41.884;23.466;2022-07-21T08:13:36;29.40;;;9.60;;
7881;SDS011;3986;41.884;23.466;2022-07-21T08:16:03;35.13;;;9.35;;
7881;SDS011;3986;41.884;23.466;2022-07-21T08:18:30;24.23;;;8.25;;
7881;SDS011;3986;41.884;23.466;2022-07-21T08:20:57;34.58;;;9.70;;
7881;SDS011;3986;41.884;23.466;2022-07-21T08:23:24;29.60;;;8.57;;
7881;SDS011;3986;41.884;23.466;2022-07-21T08:25:52;33.20;;;8.23;;
7881;SDS011;3986;41.884;23.466;2022-07-21T08:28:19;33.63;;;8.13;;
7881;SDS011;3986;41.884;23.466;2022-07-21T08:30:48;37.33;;;8.82;;
7881;SDS011;3986;41.884;23.466;2022-07-21T08:33:15;37.60;;;8.35;;
7881;SDS011;3986;41.884;23.466;2022-07-21T08:35:42;33.60;;;8.18;;
7881;SDS011;3986;41.884;23.466;2022-07-21T08:38:10;19.60;;;6.88;;
7881;SDS011;3986;41.884;23.466;2022-07-21T08:40:38;37.22;;;7.88;;
7881;SDS011;3986;41.884;23.466;2022-07-21T08:43:07;38.03;;;8.07;;
7881;SDS011;3986;41.884;23.466;2022-07-21T08:45:35;35.72;;;7.68;;
7881;SDS011;3986;41.884;23.466;2022-07-21T08:48:04;38.03;;;7.82;;
7881;SDS011;3986;41.884;23.466;2022-07-21T08:50:33;33.67;;;7.90;;
7881;SDS011;3986;41.884;23.466;2022-07-21T08:53:02;27.67;;;7.63;;
7881;SDS011;3986;41.884;23.466;2022-07-21T08:55:30;33.17;;;8.40;;
7881;SDS011;3986;41.884;23.466;2022-07-21T08:57:58;26.00;;;6.85;;
7881;SDS011;3986;41.884;23.466;2022-07-21T09:00:26;23.90;;;6.78;;
7881;SDS011;3986;41.884;23.466;2022-07-21T09:05:41;24.25;;;7.03;;
7881;SDS011;3986;41.884;23.466;2022-07-21T09:08:09;16.85;;;6.57;;
7881;SDS011;3986;41.884;23.466;2022-07-21T09:10:36;36.70;;;8.35;;
7881;SDS011;3986;41.884;23.466;2022-07-21T09:13:04;32.85;;;7.15;;
7881;SDS011;3986;41.884;23.466;2022-07-21T09:15:32;33.13;;;7.25;;
7881;SDS011;3986;41.884;23.466;2022-07-21T09:18:04;20.98;;;6.50;;
7881;SDS011;3986;41.884;23.466;2022-07-21T09:20:34;18.55;;;6.45;;
7881;SDS011;3986;41.884;23.466;2022-07-21T09:23:06;23.88;;;7.00;;
7881;SDS011;3986;41.884;23.466;2022-07-21T09:25:35;22.88;;;6.75;;
7881;SDS011;3986;41.884;23.466;2022-07-21T09:28:11;22.35;;;6.20;;
7881;SDS011;3986;41.884;23.466;2022-07-21T09:30:54;11.73;;;5.40;;
7881;SDS011;3986;41.884;23.466;2022-07-21T09:33:23;24.55;;;6.57;;
7881;SDS011;3986;41.884;23.466;2022-07-21T09:35:57;19.85;;;5.53;;
7881;SDS011;3986;41.884;23.466;2022-07-21T09:38:27;20.80;;;5.85;;
7881;SDS011;3986;41.884;23.466;2022-07-21T09:40:55;34.33;;;7.00;;
7881;SDS011;3986;41.884;23.466;2022-07-21T09:43:33;38.45;;;7.25;;
7881;SDS011;3986;41.884;23.466;2022-07-21T09:46:07;22.73;;;6.15;;
7881;SDS011;3986;41.884;23.466;2022-07-21T09:48:37;51.92;;;8.75;;
7881;SDS011;3986;41.884;23.466;2022-07-21T09:51:26;32.50;;;7.22;;
7881;SDS011;3986;41.884;23.466;2022-07-21T09:53:56;18.30;;;5.43;;
7881;SDS011;3986;41.884;23.466;2022-07-21T09:56:25;15.05;;;5.18;;
7881;SDS011;3986;41.884;23.466;2022-07-21T09:58:53;17.92;;;5.05;;
7881;SDS011;3986;41.884;23.466;2022-07-21T10:01:22;17.10;;;5.20;;
7881;SDS011;3986;41.884;23.466;2022-07-21T10:03:49;26.45;;;6.32;;
7881;SDS011;3986;41.884;23.466;2022-07-21T10:06:17;12.20;;;4.82;;
7881;SDS011;3986;41.884;23.466;2022-07-21T10:08:47;22.23;;;5.72;;
7881;SDS011;3986;41.884;23.466;2022-07-21T10:11:14;19.73;;;5.22;;
7881;SDS011;3986;41.884;23.466;2022-07-21T10:13:41;21.65;;;5.57;;
7881;SDS011;3986;41.884;23.466;2022-07-21T10:16:09;25.23;;;6.07;;
7881;SDS011;3986;41.884;23.466;2022-07-21T10:18:39;31.45;;;7.57;;
7881;SDS011;3986;41.884;23.466;2022-07-21T10:21:36;26.23;;;6.22;;
7881;SDS011;3986;41.884;23.466;2022-07-21T10:24:10;32.20;;;7.50;;
7881;SDS011;3986;41.884;23.466;2022-07-21T10:26:37;24.63;;;6.72;;
7881;SDS011;3986;41.884;23.466;2022-07-21T10:29:05;27.40;;;6.85;;
7881;SDS011;3986;41.884;23.466;2022-07-21T10:31:34;22.27;;;5.85;;
7881;SDS011;3986;41.884;23.466;2022-07-21T10:34:08;27.75;;;6.63;;
7881;SDS011;3986;41.884;23.466;2022-07-21T10:36:39;24.73;;;6.47;;
7881;SDS011;3986;41.884;23.466;2022-07-21T10:39:19;25.10;;;6.47;;
7881;SDS011;3986;41.884;23.466;2022-07-21T10:41:49;34.53;;;7.72;;
7881;SDS011;3986;41.884;23.466;2022-07-21T10:47:13;37.22;;;7.43;;
7881;SDS011;3986;41.884;23.466;2022-07-21T10:49:47;23.98;;;6.68;;
7881;SDS011;3986;41.884;23.466;2022-07-21T10:55:24;24.38;;;6.90;;
7881;SDS011;3986;41.884;23.466;2022-07-21T10:58:09;18.35;;;6.10;;
7881;SDS011;3986;41.884;23.466;2022-07-21T11:00:48;27.60;;;6.95;;
7881;SDS011;3986;41.884;23.466;2022-07-21T11:03:17;35.83;;;7.65;;
7881;SDS011;3986;41.884;23.466;2022-07-21T11:08:41;30.92;;;7.03;;
7881;SDS011;3986;41.884;23.466;2022-07-21T11:11:11;28.63;;;7.20;;
7881;SDS011;3986;41.884;23.466;2022-07-21T11:13:59;30.17;;;7.35;;
7881;SDS011;3986;41.884;23.466;2022-07-21T11:16:56;35.20;;;7.32;;
7881;SDS011;3986;41.884;23.466;2022-07-21T11:19:31;26.73;;;6.35;;
7881;SDS011;3986;41.884;23.466;2022-07-21T11:22:01;47.30;;;7.65;;
7881;SDS011;3986;41.884;23.466;2022-07-21T11:24:30;20.88;;;5.60;;
7881;SDS011;3986;41.884;23.466;2022-07-21T11:26:59;31.70;;;6.70;;
7881;SDS011;3986;41.884;23.466;2022-07-21T11:29:26;25.73;;;6.15;;
7881;SDS011;3986;41.884;23.466;2022-07-21T11:31:55;22.00;;;6.45;;
7881;SDS011;3986;41.884;23.466;2022-07-21T11:34:24;23.52;;;6.13;;
7881;SDS011;3986;41.884;23.466;2022-07-21T11:36:58;24.30;;;6.65;;
7881;SDS011;3986;41.884;23.466;2022-07-21T11:39:26;7.80;;;5.10;;
7881;SDS011;3986;41.884;23.466;2022-07-21T11:41:53;25.10;;;6.45;;
7881;SDS011;3986;41.884;23.466;2022-07-21T11:44:25;21.92;;;5.95;;
7881;SDS011;3986;41.884;23.466;2022-07-21T11:46:53;36.88;;;7.57;;
7881;SDS011;3986;41.884;23.466;2022-07-21T11:49:21;15.18;;;7.35;;
7881;SDS011;3986;41.884;23.466;2022-07-21T11:51:49;19.23;;;6.38;;
7881;SDS011;3986;41.884;23.466;2022-07-21T11:54:20;31.52;;;12.20;;
7881;SDS011;3986;41.884;23.466;2022-07-21T11:56:52;16.60;;;6.25;;
7881;SDS011;3986;41.884;23.466;2022-07-21T11:59:20;19.23;;;6.43;;
7881;SDS011;3986;41.884;23.466;2022-07-21T12:01:55;9.88;;;6.20;;
7881;SDS011;3986;41.884;23.466;2022-07-21T12:07:14;17.05;;;6.38;;
7881;SDS011;3986;41.884;23.466;2022-07-21T12:09:44;35.13;;;7.32;;
7881;SDS011;3986;41.884;23.466;2022-07-21T12:12:12;16.42;;;6.07;;
7881;SDS011;3986;41.884;23.466;2022-07-21T12:18:04;19.05;;;6.35;;
7881;SDS011;3986;41.884;23.466;2022-07-21T12:20:33;16.70;;;6.75;;
7881;SDS011;3986;41.884;23.466;2022-07-21T12:23:02;10.77;;;5.82;;
7881;SDS011;3986;41.884;23.466;2022-07-21T12:25:32;11.15;;;5.55;;
7881;SDS011;3986;41.884;23.466;2022-07-21T12:28:00;13.23;;;5.90;;
7881;SDS011;3986;41.884;23.466;2022-07-21T12:30:33;18.27;;;6.53;;
7881;SDS011;3986;41.884;23.466;2022-07-21T12:33:04;11.98;;;5.70;;
7881;SDS011;3986;41.884;23.466;2022-07-21T12:35:33;17.95;;;6.38;;
7881;SDS011;3986;41.884;23.466;2022-07-21T12:38:08;11.45;;;5.95;;
7881;SDS011;3986;41.884;23.466;2022-07-21T12:40:37;22.95;;;6.35;;
7881;SDS011;3986;41.884;23.466;2022-07-21T12:43:07;20.88;;;6.22;;
7881;SDS011;3986;41.884;23.466;2022-07-21T12:45:44;24.17;;;6.18;;
7881;SDS011;3986;41.884;23.466;2022-07-21T12:48:14;11.05;;;5.65;;
7881;SDS011;3986;41.884;23.466;2022-07-21T12:50:56;26.77;;;6.57;;
7881;SDS011;3986;41.884;23.466;2022-07-21T12:53:28;17.88;;;6.03;;
7881;SDS011;3986;41.884;23.466;2022-07-21T12:55:56;16.58;;;5.95;;
7881;SDS011;3986;41.884;23.466;2022-07-21T12:58:23;18.23;;;6.05;;
7881;SDS011;3986;41.884;23.466;2022-07-21T13:00:50;22.23;;;6.65;;
7881;SDS011;3986;41.884;23.466;2022-07-21T13:03:18;18.70;;;6.20;;
7881;SDS011;3986;41.884;23.466;2022-07-21T13:05:45;25.75;;;7.45;;
7881;SDS011;3986;41.884;23.466;2022-07-21T13:08:12;32.47;;;7.80;;
7881;SDS011;3986;41.884;23.466;2022-07-21T13:10:39;20.70;;;6.03;;
7881;SDS011;3986;41.884;23.466;2022-07-21T13:13:06;25.23;;;6.80;;
7881;SDS011;3986;41.884;23.466;2022-07-21T13:15:33;20.48;;;8.82;;
7881;SDS011;3986;41.884;23.466;2022-07-21T13:18:00;16.23;;;7.05;;
7881;SDS011;3986;41.884;23.466;2022-07-21T13:20:28;37.63;;;10.50;;
7881;SDS011;3986;41.884;23.466;2022-07-21T13:22:55;19.42;;;6.60;;
7881;SDS011;3986;41.884;23.466;2022-07-21T13:25:22;17.30;;;7.03;;
7881;SDS011;3986;41.884;23.466;2022-07-21T13:27:49;14.95;;;6.50;;
7881;SDS011;3986;41.884;23.466;2022-07-21T13:30:16;29.92;;;11.25;;
7881;SDS011;3986;41.884;23.466;2022-07-21T13:32:43;25.85;;;8.10;;
7881;SDS011;3986;41.884;23.466;2022-07-21T13:35:10;30.27;;;6.90;;
7881;SDS011;3986;41.884;23.466;2022-07-21T13:37:39;21.90;;;6.78;;
7881;SDS011;3986;41.884;23.466;2022-07-21T13:40:07;18.17;;;7.13;;
7881;SDS011;3986;41.884;23.466;2022-07-21T13:42:34;28.25;;;7.47;;
7881;SDS011;3986;41.884;23.466;2022-07-21T13:45:01;18.20;;;6.72;;
7881;SDS011;3986;41.884;23.466;2022-07-21T13:47:28;20.00;;;7.80;;
7881;SDS011;3986;41.884;23.466;2022-07-21T13:49:55;16.50;;;6.05;;
7881;SDS011;3986;41.884;23.466;2022-07-21T13:52:22;21.65;;;6.80;;
7881;SDS011;3986;41.884;23.466;2022-07-21T13:54:50;14.13;;;6.47;;
7881;SDS011;3986;41.884;23.466;2022-07-21T13:57:17;16.42;;;6.28;;
7881;SDS011;3986;41.884;23.466;2022-07-21T13:59:44;31.75;;;7.63;;
7881;SDS011;3986;41.884;23.466;2022-07-21T14:02:11;19.27;;;6.68;;
7881;SDS011;3986;41.884;23.466;2022-07-21T14:04:37;9.00;;;5.60;;
7881;SDS011;3986;41.884;23.466;2022-07-21T14:07:04;17.10;;;6.60;;
7881;SDS011;3986;41.884;23.466;2022-07-21T14:09:31;18.25;;;6.85;;
7881;SDS011;3986;41.884;23.466;2022-07-21T14:12:00;7.47;;;5.68;;
7881;SDS011;3986;41.884;23.466;2022-07-21T14:14:27;15.75;;;7.15;;
7881;SDS011;3986;41.884;23.466;2022-07-21T14:16:54;20.27;;;7.85;;
7881;SDS011;3986;41.884;23.466;2022-07-21T14:19:21;14.73;;;7.35;;
7881;SDS011;3986;41.884;23.466;2022-07-21T14:21:49;25.48;;;7.55;;
7881;SDS011;3986;41.884;23.466;2022-07-21T14:24:16;19.70;;;7.03;;
7881;SDS011;3986;41.884;23.466;2022-07-21T14:27:01;22.88;;;7.25;;
7881;SDS011;3986;41.884;23.466;2022-07-21T14:29:28;12.10;;;8.27;;
7881;SDS011;3986;41.884;23.466;2022-07-21T14:31:55;21.52;;;9.60;;
7881;SDS011;3986;41.884;23.466;2022-07-21T14:34:22;30.98;;;10.23;;
7881;SDS011;3986;41.884;23.466;2022-07-21T14:36:49;22.27;;;7.60;;
7881;SDS011;3986;41.884;23.466;2022-07-21T14:39:17;19.45;;;7.32;;
7881;SDS011;3986;41.884;23.466;2022-07-21T14:41:44;9.68;;;6.15;;
7881;SDS011;3986;41.884;23.466;2022-07-21T14:44:12;16.52;;;6.80;;
7881;SDS011;3986;41.884;23.466;2022-07-21T14:46:39;20.60;;;8.32;;
7881;SDS011;3986;41.884;23.466;2022-07-21T14:49:06;19.52;;;8.25;;
7881;SDS011;3986;41.884;23.466;2022-07-21T14:51:33;10.77;;;6.47;;
7881;SDS011;3986;41.884;23.466;2022-07-21T14:54:02;22.13;;;8.02;;
7881;SDS011;3986;41.884;23.466;2022-07-21T14:56:29;18.88;;;7.50;;
7881;SDS011;3986;41.884;23.466;2022-07-21T14:58:56;14.15;;;7.53;;
7881;SDS011;3986;41.884;23.466;2022-07-21T15:01:24;25.92;;;9.00;;
7881;SDS011;3986;41.884;23.466;2022-07-21T15:03:51;19.77;;;7.82;;
7881;SDS011;3986;41.884;23.466;2022-07-21T15:06:18;20.80;;;7.53;;
7881;SDS011;3986;41.884;23.466;2022-07-21T15:08:45;19.90;;;7.63;;
7881;SDS011;3986;41.884;23.466;2022-07-21T15:11:12;20.42;;;7.53;;